createdAt,value
2023-04-18T00:02:24.779Z,81.90
2023-04-18T00:04:55.361Z,82.13
2023-04-18T00:07:25.986Z,81.79
2023-04-18T00:09:56.289Z,81.60
2023-04-18T00:12:26.847Z,81.32
2023-04-18T00:14:58.856Z,81.58
2023-04-18T00:17:33.017Z,81.57
2023-04-18T00:20:07.323Z,81.85
2023-04-18T00:22:42.616Z,81.91
2023-04-18T00:25:13.943Z,81.86
2023-04-18T00:27:44.917Z,81.65
2023-04-18T00:30:16.631Z,81.63
2023-04-18T00:32:49.710Z,81.71
2023-04-18T00:35:22.518Z,81.63
2023-04-18T00:37:53.076Z,81.34
2023-04-18T00:40:23.714Z,81.56
2023-04-18T00:42:54.201Z,81.87
2023-04-18T00:45:24.903Z,82.15
2023-04-18T00:47:59.133Z,82.33
2023-04-18T00:50:30.131Z,82.35
2023-04-18T00:53:01.502Z,82.18
2023-04-18T00:55:33.208Z,82.07
2023-04-18T00:58:04.569Z,81.98
2023-04-18T01:00:35.130Z,82.03
2023-04-18T01:03:08.693Z,82.17
2023-04-18T01:05:39.981Z,82.30
2023-04-18T01:08:10.996Z,82.34
2023-04-18T01:10:41.551Z,82.58
2023-04-18T01:13:16.804Z,82.64
2023-04-18T01:15:49.333Z,82.65
2023-04-18T01:18:22.692Z,82.84
2023-04-18T01:20:57.207Z,82.66
2023-04-18T01:23:27.621Z,82.60
2023-04-18T01:26:01.146Z,82.77
2023-04-18T01:28:31.561Z,82.85
2023-04-18T01:31:01.996Z,82.61
2023-04-18T01:33:32.638Z,82.82
2023-04-18T01:36:03.159Z,82.81
2023-04-18T01:38:34.775Z,82.93
2023-04-18T01:41:07.991Z,83.34
2023-04-18T01:43:38.460Z,83.33
2023-04-18T01:46:09.050Z,83.71
2023-04-18T01:48:39.782Z,84.09
2023-04-18T01:51:10.831Z,84.33
2023-04-18T01:53:41.935Z,84.28
2023-04-18T01:56:15.717Z,83.95
2023-04-18T01:58:46.133Z,83.97
2023-04-18T02:01:17.031Z,84.21
2023-04-18T02:03:47.822Z,84.44
2023-04-18T02:06:18.410Z,84.47
2023-04-18T02:08:50.533Z,84.56
2023-04-18T02:11:23.815Z,84.90
2023-04-18T02:13:54.289Z,84.95
2023-04-18T02:16:25.139Z,84.85
2023-04-18T02:18:55.684Z,84.68
2023-04-18T02:21:26.128Z,84.58
2023-04-18T02:23:56.893Z,84.78
2023-04-18T02:26:30.050Z,84.72
2023-04-18T02:29:01.575Z,84.68
2023-04-18T02:31:33.353Z,84.53
2023-04-18T02:34:03.956Z,84.62
2023-04-18T02:36:34.381Z,85.06
2023-04-18T02:39:09.352Z,85.04
2023-04-18T02:41:42.357Z,85.07
2023-04-18T02:44:13.362Z,85.14
2023-04-18T02:46:43.887Z,84.81
2023-04-18T02:49:17.097Z,84.76
2023-04-18T02:51:48.517Z,84.83
2023-04-18T02:54:20.304Z,84.93
2023-04-18T02:57:08.023Z,85.33
2023-04-18T02:59:51.124Z,85.26
2023-04-18T03:02:44.354Z,84.61
2023-04-18T03:05:39.945Z,84.87
2023-04-18T03:08:11.236Z,84.50
2023-04-18T03:10:42.315Z,84.62
2023-04-18T03:13:15.564Z,85.23
2023-04-18T03:15:46.911Z,84.99
2023-04-18T03:18:17.656Z,85.06
2023-04-18T03:20:48.214Z,84.96
2023-04-18T03:23:20.138Z,85.26
2023-04-18T03:25:50.610Z,84.79
2023-04-18T03:28:23.808Z,84.97
2023-04-18T03:30:54.268Z,84.61
2023-04-18T03:33:25.283Z,84.58
2023-04-18T03:36:03.493Z,85.27
2023-04-18T03:38:34.341Z,85.69
2023-04-18T03:41:04.767Z,85.80
2023-04-18T03:43:40.687Z,85.80
2023-04-18T03:46:11.175Z,85.71
2023-04-18T03:48:42.119Z,85.32
2023-04-18T03:51:15.076Z,84.96
2023-04-18T03:53:45.497Z,85.17
2023-04-18T03:56:16.156Z,85.26
2023-04-18T03:59:00.981Z,85.33
2023-04-18T04:01:31.586Z,85.19
2023-04-18T04:04:03.229Z,85.46
2023-04-18T04:06:34.532Z,85.31
2023-04-18T04:09:05.343Z,85.45
2023-04-18T04:11:36.626Z,85.49
2023-04-18T04:14:10.799Z,85.55
2023-04-18T04:16:46.483Z,85.49
2023-04-18T04:19:19.920Z,85.56
2023-04-18T04:22:08.361Z,85.66
2023-04-18T04:24:40.587Z,85.88
2023-04-18T04:27:12.685Z,85.89
2023-04-18T04:29:46.599Z,85.31
2023-04-18T04:32:17.532Z,85.66
2023-04-18T04:34:48.147Z,85.61
2023-04-18T04:37:19.029Z,85.56
2023-04-18T04:40:10.345Z,85.94
2023-04-18T04:42:57.067Z,85.95
2023-04-18T04:45:39.913Z,85.25
2023-04-18T04:48:10.636Z,84.96
2023-04-18T04:50:43.662Z,85.58
2023-04-18T04:53:15.489Z,84.99
2023-04-18T04:55:46.487Z,85.15
2023-04-18T04:58:17.683Z,85.29
2023-04-18T05:01:12.623Z,85.04
2023-04-18T05:03:44.402Z,85.80
2023-04-18T05:06:20.619Z,85.66
2023-04-18T05:08:51.187Z,85.27
2023-04-18T05:11:21.829Z,85.03
2023-04-18T05:13:52.274Z,85.22
2023-04-18T05:16:25.410Z,85.48
2023-04-18T05:18:55.830Z,85.74
2023-04-18T05:21:27.664Z,85.80
2023-04-18T05:23:58.729Z,85.64
2023-04-18T05:26:29.176Z,85.18
2023-04-18T05:28:59.561Z,85.49
2023-04-18T05:31:32.627Z,85.67
2023-04-18T05:34:03.098Z,85.89
2023-04-18T05:36:33.521Z,86.07
2023-04-18T05:39:04.366Z,85.79
2023-04-18T05:41:34.691Z,86.59
2023-04-18T05:44:05.925Z,86.45
2023-04-18T05:46:39.183Z,86.69
2023-04-18T05:49:09.754Z,86.72
2023-04-18T05:51:40.550Z,86.58
2023-04-18T05:54:10.955Z,86.21
2023-04-18T05:56:43.547Z,85.86
2023-04-18T05:59:14.176Z,85.69
2023-04-18T06:01:47.179Z,85.65
2023-04-18T06:04:18.091Z,86.10
2023-04-18T06:06:48.790Z,86.49
2023-04-18T06:09:19.288Z,86.23
2023-04-18T06:11:49.712Z,85.49
2023-04-18T06:14:20.083Z,85.41
2023-04-18T06:16:53.187Z,85.56
2023-04-18T06:19:23.499Z,85.74
2023-04-18T06:21:55.552Z,85.72
2023-04-18T06:24:26.032Z,85.71
2023-04-18T06:26:57.496Z,85.82
2023-04-18T06:29:30.561Z,85.70
2023-04-18T06:32:03.595Z,85.98
2023-04-18T06:34:33.993Z,86.59
2023-04-18T06:37:05.288Z,86.93
2023-04-18T06:39:35.647Z,86.53
2023-04-18T06:42:06.281Z,86.55
2023-04-18T06:44:37.042Z,86.28
2023-04-18T06:47:10.300Z,86.40
2023-04-18T06:49:40.676Z,86.58
2023-04-18T06:52:11.211Z,85.42
2023-04-18T06:54:41.788Z,85.53
2023-04-18T06:57:12.515Z,86.10
2023-04-18T06:59:43.564Z,85.66
2023-04-18T07:02:16.581Z,84.54
2023-04-18T07:04:47.522Z,85.38
2023-04-18T07:07:17.895Z,85.29
2023-04-18T07:09:48.320Z,85.33
2023-04-18T07:12:18.973Z,85.11
2023-04-18T07:14:49.848Z,85.09
2023-04-18T07:17:22.921Z,85.28
2023-04-18T07:19:53.431Z,84.99
2023-04-18T07:22:23.970Z,85.63
2023-04-18T07:24:54.472Z,84.38
2023-04-18T07:27:24.821Z,84.20
2023-04-18T07:29:55.220Z,84.12
2023-04-18T07:32:28.390Z,84.44
2023-04-18T07:34:59.530Z,83.70
2023-04-18T07:37:29.972Z,83.20
2023-04-18T07:40:00.614Z,83.83
2023-04-18T07:42:31.313Z,84.49
2023-04-18T07:45:01.873Z,83.49
2023-04-18T07:47:35.071Z,83.36
2023-04-18T07:50:06.103Z,84.52
2023-04-18T07:52:38.179Z,83.84
2023-04-18T07:55:11.488Z,83.62
2023-04-18T07:57:41.892Z,83.55
2023-04-18T08:00:15.235Z,84.08
2023-04-18T08:02:48.383Z,84.63
2023-04-18T08:05:19.192Z,84.14
2023-04-18T08:07:49.698Z,84.21
2023-04-18T08:10:23.191Z,83.73
2023-04-18T08:12:54.092Z,83.11
2023-04-18T08:15:24.701Z,82.80
2023-04-18T08:17:57.760Z,82.48
2023-04-18T08:20:28.472Z,84.81
2023-04-18T08:23:07.459Z,85.96
2023-04-18T08:25:39.450Z,84.96
2023-04-18T08:28:10.073Z,83.28
2023-04-18T08:30:40.812Z,83.75
2023-04-18T08:33:13.910Z,82.00
2023-04-18T08:35:44.542Z,82.16
2023-04-18T08:38:14.927Z,82.23
2023-04-18T08:40:46.699Z,81.40
2023-04-18T08:43:18.151Z,81.60
2023-04-18T08:45:48.812Z,82.48
2023-04-18T08:48:23.367Z,82.71
2023-04-18T08:50:59.900Z,82.37
2023-04-18T08:53:32.875Z,81.55
2023-04-18T08:56:03.439Z,81.07
2023-04-18T08:58:34.455Z,80.52
2023-04-18T09:01:04.978Z,78.82
2023-04-18T09:03:45.535Z,79.70
2023-04-18T09:06:20.454Z,79.71
2023-04-18T09:09:00.404Z,79.45
2023-04-18T09:11:34.548Z,80.03
2023-04-18T09:14:05.069Z,80.67
2023-04-18T09:16:50.734Z,80.57
2023-04-18T09:19:23.948Z,79.64
2023-04-18T09:22:02.084Z,79.61
2023-04-18T09:24:34.607Z,80.24
2023-04-18T09:27:05.138Z,80.00
2023-04-18T09:29:50.094Z,80.04
2023-04-18T09:32:27.365Z,80.32
2023-04-18T09:35:04.880Z,79.76
2023-04-18T09:37:35.700Z,79.31
2023-04-18T09:40:20.859Z,78.90
2023-04-18T09:42:51.772Z,79.24
2023-04-18T09:45:22.341Z,78.28
2023-04-18T09:47:53.653Z,76.12
2023-04-18T09:50:26.734Z,77.60
2023-04-18T09:52:58.543Z,77.10
2023-04-18T09:55:29.576Z,77.16
2023-04-18T09:58:02.629Z,75.46
2023-04-18T10:00:35.190Z,76.52
2023-04-18T10:03:11.006Z,76.84
2023-04-18T10:05:45.975Z,76.34
2023-04-18T10:08:17.092Z,76.41
2023-04-18T10:10:47.665Z,77.75
2023-04-18T10:13:18.406Z,76.93
2023-04-18T10:15:52.124Z,76.51
2023-04-18T10:18:27.088Z,77.03
2023-04-18T10:21:08.342Z,76.76
2023-04-18T10:23:41.497Z,76.75
2023-04-18T10:26:12.556Z,77.41
2023-04-18T10:28:59.607Z,79.11
2023-04-18T10:31:31.913Z,77.31
2023-04-18T10:34:05.924Z,77.66
2023-04-18T10:36:39.551Z,76.97
2023-04-18T10:39:26.350Z,75.16
2023-04-18T10:41:56.783Z,74.79
2023-04-18T10:44:27.742Z,74.09
2023-04-18T10:47:34.157Z,73.73
2023-04-18T10:50:07.055Z,73.75
2023-04-18T10:52:40.436Z,73.44
2023-04-18T10:55:20.585Z,72.63
2023-04-18T10:57:56.162Z,72.59
2023-04-18T11:00:27.023Z,72.54
2023-04-18T11:03:00.484Z,73.02
2023-04-18T11:05:32.080Z,73.65
2023-04-18T11:08:05.078Z,74.18
2023-04-18T11:10:35.517Z,74.86
2023-04-18T11:13:09.000Z,74.18
2023-04-18T11:15:40.227Z,71.89
2023-04-18T11:18:12.790Z,70.99
2023-04-18T11:20:50.209Z,71.17
2023-04-18T11:23:25.657Z,71.34
2023-04-18T11:25:58.752Z,71.59
2023-04-18T11:28:29.884Z,71.30
2023-04-18T11:31:03.006Z,71.69
2023-04-18T11:33:33.593Z,71.73
2023-04-18T11:36:04.260Z,70.78
2023-04-18T11:38:37.290Z,72.03
2023-04-18T11:41:07.954Z,72.95
2023-04-18T11:43:38.389Z,72.90
2023-04-18T11:46:09.021Z,72.43
2023-04-18T11:48:39.743Z,74.14
2023-04-18T11:51:31.408Z,75.24
2023-04-18T11:54:04.529Z,75.29
2023-04-18T11:56:36.663Z,76.00
2023-04-18T11:59:12.500Z,75.10
2023-04-18T12:01:43.377Z,75.51
2023-04-18T12:04:14.528Z,76.38
2023-04-18T12:06:52.537Z,75.13
2023-04-18T12:09:27.367Z,74.15
2023-04-18T12:12:02.969Z,73.58
2023-04-18T12:14:33.883Z,73.20
2023-04-18T12:17:07.013Z,72.49
2023-04-18T12:19:37.450Z,70.63
2023-04-18T12:22:09.594Z,70.65
2023-04-18T12:24:43.502Z,69.90
2023-04-18T12:27:14.222Z,69.39
2023-04-18T12:29:44.736Z,68.33
2023-04-18T12:32:15.248Z,66.19
2023-04-18T12:34:45.656Z,66.88
2023-04-18T12:37:16.100Z,67.40
2023-04-18T12:39:49.077Z,69.19
2023-04-18T12:42:19.592Z,67.56
2023-04-18T12:44:50.048Z,65.77
2023-04-18T12:47:20.466Z,66.79
2023-04-18T12:49:50.937Z,65.27
2023-04-18T12:52:21.484Z,65.90
2023-04-18T12:54:56.480Z,65.48
2023-04-18T12:57:28.036Z,64.27
2023-04-18T12:59:59.431Z,65.41
2023-04-18T13:02:30.596Z,67.21
2023-04-18T13:05:01.274Z,67.83
2023-04-18T13:07:31.958Z,67.13
2023-04-18T13:10:04.984Z,66.09
2023-04-18T13:12:35.649Z,65.90
2023-04-18T13:15:06.999Z,66.96
2023-04-18T13:17:39.077Z,65.84
2023-04-18T13:20:13.188Z,64.50
2023-04-18T13:22:45.112Z,64.75
2023-04-18T13:25:18.350Z,64.09
2023-04-18T13:27:50.413Z,63.91
2023-04-18T13:30:21.322Z,62.31
2023-04-18T13:32:51.978Z,63.47
2023-04-18T13:35:22.767Z,63.90
2023-04-18T13:37:53.496Z,63.75
2023-04-18T13:40:26.658Z,62.69
2023-04-18T13:42:57.380Z,61.77
2023-04-18T13:45:27.835Z,61.53
2023-04-18T13:47:58.367Z,60.97
2023-04-18T13:50:28.895Z,61.36
2023-04-18T13:52:59.485Z,60.30
2023-04-18T13:55:32.733Z,60.57
2023-04-18T13:58:03.337Z,60.57
2023-04-18T14:00:34.025Z,61.14
2023-04-18T14:03:05.145Z,61.71
2023-04-18T14:05:36.166Z,61.05
2023-04-18T14:08:06.818Z,61.53
2023-04-18T14:10:40.076Z,61.39
2023-04-18T14:13:10.501Z,61.50
2023-04-18T14:15:40.897Z,62.08
2023-04-18T14:18:11.599Z,63.25
2023-04-18T14:20:42.041Z,63.48
2023-04-18T14:23:12.539Z,63.36
2023-04-18T14:25:46.136Z,60.65
2023-04-18T14:28:17.584Z,60.91
2023-04-18T14:30:48.073Z,58.87
2023-04-18T14:33:18.589Z,59.11
2023-04-18T14:35:48.986Z,58.28
2023-04-18T14:38:19.417Z,59.13
2023-04-18T14:40:52.468Z,58.09
2023-04-18T14:43:22.904Z,60.83
2023-04-18T14:45:53.550Z,60.62
2023-04-18T14:48:24.062Z,59.28
2023-04-18T14:50:59.771Z,60.40
2023-04-18T14:53:30.199Z,61.46
2023-04-18T14:56:03.280Z,61.27
2023-04-18T14:58:33.725Z,61.53
2023-04-18T15:01:04.252Z,61.67
2023-04-18T15:03:35.456Z,61.70
2023-04-18T15:06:06.076Z,61.28
2023-04-18T15:08:36.922Z,62.02
2023-04-18T15:11:11.862Z,62.56
2023-04-18T15:13:42.843Z,62.39
2023-04-18T15:16:13.373Z,62.10
2023-04-18T15:18:45.233Z,60.75
2023-04-18T15:21:15.695Z,60.41
2023-04-18T15:23:46.220Z,60.15
2023-04-18T15:26:19.186Z,61.09
2023-04-18T15:28:49.807Z,61.73
2023-04-18T15:31:20.262Z,61.86
2023-04-18T15:33:50.663Z,61.08
2023-04-18T15:36:21.049Z,60.20
2023-04-18T15:38:51.683Z,60.54
2023-04-18T15:41:24.746Z,61.23
2023-04-18T15:43:56.197Z,61.43
2023-04-18T15:46:26.571Z,61.41
2023-04-18T15:48:57.115Z,61.24
2023-04-18T15:51:30.520Z,61.50
2023-04-18T15:54:01.074Z,62.19
2023-04-18T15:56:36.773Z,61.76
2023-04-18T15:59:11.188Z,62.22
2023-04-18T16:01:43.249Z,62.79
2023-04-18T16:04:15.460Z,63.32
2023-04-18T16:06:46.107Z,62.97
2023-04-18T16:09:16.507Z,63.96
2023-04-18T16:11:49.494Z,63.48
2023-04-18T16:14:19.953Z,63.64
2023-04-18T16:16:50.416Z,63.85
2023-04-18T16:19:21.113Z,64.75
2023-04-18T16:21:51.788Z,64.61
2023-04-18T16:24:22.227Z,64.21
2023-04-18T16:26:55.772Z,63.17
2023-04-18T16:29:26.286Z,63.68
2023-04-18T16:31:56.679Z,62.44
2023-04-18T16:34:27.134Z,62.83
2023-04-18T16:36:57.876Z,63.36
2023-04-18T16:39:28.339Z,63.07
2023-04-18T16:42:01.612Z,63.55
2023-04-18T16:44:33.354Z,63.10
2023-04-18T16:47:05.192Z,63.71
2023-04-18T16:49:35.941Z,62.87
2023-04-18T16:52:06.611Z,64.06
2023-04-18T16:54:37.091Z,63.59
2023-04-18T16:57:10.127Z,63.97
2023-04-18T16:59:41.931Z,64.64
2023-04-18T17:02:12.827Z,65.08
2023-04-18T17:04:43.451Z,64.62
2023-04-18T17:07:13.917Z,65.30
2023-04-18T17:09:44.388Z,65.34
2023-04-18T17:12:17.407Z,65.73
2023-04-18T17:14:47.801Z,65.42
2023-04-18T17:17:18.553Z,65.03
2023-04-18T17:19:49.259Z,65.99
2023-04-18T17:22:19.670Z,65.86
2023-04-18T17:24:50.123Z,65.24
2023-04-18T17:27:23.154Z,65.11
2023-04-18T17:29:53.614Z,64.74
2023-04-18T17:32:24.338Z,64.44
2023-04-18T17:34:56.396Z,64.37
2023-04-18T17:37:27.467Z,64.88
2023-04-18T17:39:58.543Z,65.27
2023-04-18T17:42:31.606Z,65.91
2023-04-18T17:45:04.386Z,65.92
2023-04-18T17:47:34.838Z,65.75
2023-04-18T17:50:05.816Z,65.94
2023-04-18T17:52:36.455Z,65.19
2023-04-18T17:55:07.881Z,65.90
2023-04-18T17:57:41.064Z,66.80
2023-04-18T18:00:14.652Z,67.15
2023-04-18T18:02:45.379Z,67.34
2023-04-18T18:05:16.817Z,67.17
2023-04-18T18:07:50.143Z,67.81
2023-04-18T18:10:23.413Z,68.12
2023-04-18T18:12:56.860Z,67.86
2023-04-18T18:15:28.570Z,68.24
2023-04-18T18:17:59.308Z,68.50
2023-04-18T18:20:30.947Z,68.64
2023-04-18T18:23:02.959Z,69.08
2023-04-18T18:25:36.575Z,69.50
2023-04-18T18:28:10.013Z,69.06
2023-04-18T18:30:40.591Z,69.65
2023-04-18T18:33:11.063Z,69.88
2023-04-18T18:35:41.716Z,69.90
2023-04-18T18:38:12.196Z,70.13
2023-04-18T18:40:42.737Z,70.33
2023-04-18T18:43:15.846Z,70.13
2023-04-18T18:45:46.236Z,70.46
2023-04-18T18:48:16.699Z,70.47
2023-04-18T18:50:48.297Z,70.57
2023-04-18T18:53:19.476Z,70.62
2023-04-18T18:55:49.820Z,71.06
2023-04-18T18:58:22.880Z,70.93
2023-04-18T19:00:54.796Z,70.95
2023-04-18T19:03:26.162Z,71.54
2023-04-18T19:05:56.863Z,71.34
2023-04-18T19:08:27.258Z,71.69
2023-04-18T19:10:57.666Z,71.99
2023-04-18T19:13:30.702Z,71.97
2023-04-18T19:16:01.571Z,71.39
2023-04-18T19:18:32.002Z,71.85
2023-04-18T19:21:02.397Z,71.75
2023-04-18T19:23:32.940Z,72.23
2023-04-18T19:26:03.478Z,72.35
2023-04-18T19:28:36.508Z,72.69
2023-04-18T19:31:07.062Z,72.55
2023-04-18T19:33:37.836Z,71.80
2023-04-18T19:36:08.852Z,71.86
2023-04-18T19:38:39.263Z,72.43
2023-04-18T19:41:09.642Z,72.48
2023-04-18T19:43:42.881Z,72.60
2023-04-18T19:46:13.383Z,72.84
2023-04-18T19:48:43.937Z,73.00
2023-04-18T19:51:14.356Z,72.96
2023-04-18T19:53:44.910Z,72.94
2023-04-18T19:56:15.440Z,73.17
2023-04-18T19:58:49.251Z,73.08
2023-04-18T20:01:22.577Z,73.39
2023-04-18T20:03:54.222Z,73.45
2023-04-18T20:06:25.304Z,73.47
2023-04-18T20:08:56.304Z,73.45
2023-04-18T20:11:28.222Z,73.26
2023-04-18T20:14:01.354Z,73.57
2023-04-18T20:16:32.934Z,73.75
2023-04-18T20:19:04.204Z,73.72
2023-04-18T20:21:35.034Z,73.84
2023-04-18T20:24:05.772Z,73.76
2023-04-18T20:26:36.352Z,73.70
2023-04-18T20:29:09.403Z,73.95
2023-04-18T20:31:42.465Z,74.10
2023-04-18T20:34:12.979Z,74.46
2023-04-18T20:36:44.011Z,74.65
2023-04-18T20:39:15.742Z,74.66
2023-04-18T20:41:47.311Z,74.81
2023-04-18T20:44:22.330Z,74.94
2023-04-18T20:46:53.608Z,75.02
2023-04-18T20:49:23.988Z,75.01
2023-04-18T20:51:54.504Z,74.92
2023-04-18T20:54:25.169Z,75.04
2023-04-18T20:56:55.566Z,75.45
2023-04-18T20:59:28.589Z,75.42
2023-04-18T21:01:59.052Z,75.61
2023-04-18T21:04:30.435Z,75.73
2023-04-18T21:07:00.852Z,75.68
2023-04-18T21:09:36.458Z,75.59
2023-04-18T21:12:07.754Z,75.27
2023-04-18T21:14:40.685Z,75.47
2023-04-18T21:17:17.206Z,75.62
2023-04-18T21:19:48.488Z,75.69
2023-04-18T21:22:20.050Z,75.91
2023-04-18T21:24:50.995Z,76.07
2023-04-18T21:27:21.486Z,75.87
2023-04-18T21:29:54.755Z,76.24
2023-04-18T21:32:25.329Z,76.13
2023-04-18T21:34:56.659Z,75.92
2023-04-18T21:37:27.847Z,76.09
2023-04-18T21:39:58.435Z,76.21
2023-04-18T21:42:28.837Z,75.95
2023-04-18T21:45:01.845Z,76.35
2023-04-18T21:47:32.458Z,76.20
2023-04-18T21:50:03.146Z,76.25
2023-04-18T21:52:33.646Z,76.82
2023-04-18T21:55:05.135Z,76.86
2023-04-18T21:57:35.604Z,76.60
2023-04-18T22:00:13.095Z,76.37
2023-04-18T22:02:43.977Z,76.24
2023-04-18T22:05:14.589Z,76.28
2023-04-18T22:07:56.939Z,76.28
2023-04-18T22:10:28.920Z,75.99
2023-04-18T22:13:00.349Z,76.31
2023-04-18T22:15:33.638Z,76.67
2023-04-18T22:18:05.441Z,76.87
2023-04-18T22:20:36.379Z,76.71
2023-04-18T22:23:07.387Z,77.04
2023-04-18T22:25:38.200Z,76.86
2023-04-18T22:28:08.751Z,76.64
2023-04-18T22:30:41.959Z,76.66
2023-04-18T22:33:12.449Z,76.41
2023-04-18T22:35:42.948Z,76.48
2023-04-18T22:38:13.303Z,76.67
2023-04-18T22:40:43.956Z,76.84
2023-04-18T22:43:14.482Z,77.23
2023-04-18T22:45:48.835Z,77.17
2023-04-18T22:48:19.359Z,76.91
2023-04-18T22:50:50.123Z,76.97
2023-04-18T22:53:20.580Z,77.02
2023-04-18T22:55:51.131Z,76.80
2023-04-18T22:58:21.749Z,77.05
2023-04-18T23:00:54.821Z,77.44
2023-04-18T23:03:25.269Z,77.51
2023-04-18T23:05:56.120Z,77.50
2023-04-18T23:08:26.526Z,77.96
2023-04-18T23:10:57.101Z,78.04
2023-04-18T23:13:27.760Z,78.71
2023-04-18T23:16:00.797Z,78.66
2023-04-18T23:18:32.732Z,78.83
2023-04-18T23:21:03.673Z,78.67
2023-04-18T23:23:34.216Z,79.21
2023-04-18T23:26:04.666Z,79.02
2023-04-18T23:28:35.940Z,79.49
2023-04-18T23:31:09.883Z,79.64
2023-04-18T23:33:40.409Z,79.57
2023-04-18T23:36:11.906Z,79.49
2023-04-18T23:38:43.620Z,79.15
2023-04-18T23:41:14.034Z,78.91
2023-04-18T23:43:44.697Z,78.92
2023-04-18T23:46:18.197Z,79.51
2023-04-18T23:48:48.858Z,79.51
2023-04-18T23:51:19.467Z,79.80
2023-04-18T23:53:50.129Z,79.91
2023-04-18T23:56:20.625Z,79.92
2023-04-18T23:58:51.019Z,80.34
